sensor_id;sensor_type;location;lat;lon;timestamp;P1;durP1;ratioP1;P2;durP2;ratioP2
55146;SDS011;41039;49.830;23.988;2023-05-10T00:01:03;4.53;;;3.13;;
55146;SDS011;41039;49.830;23.988;2023-05-10T00:03:28;6.22;;;3.92;;
55146;SDS011;41039;49.830;23.988;2023-05-10T00:05:53;9.40;;;3.92;;
55146;SDS011;41039;49.830;23.988;2023-05-10T00:08:18;6.10;;;3.30;;
55146;SDS011;41039;49.830;23.988;2023-05-10T00:10:44;9.38;;;4.28;;
55146;SDS011;41039;49.830;23.988;2023-05-10T00:13:09;11.02;;;4.00;;
55146;SDS011;41039;49.830;23.988;2023-05-10T00:15:34;10.65;;;4.43;;
55146;SDS011;41039;49.830;23.988;2023-05-10T00:17:59;8.32;;;4.03;;
55146;SDS011;41039;49.830;23.988;2023-05-10T00:20:25;5.68;;;3.60;;
55146;SDS011;41039;49.830;23.988;2023-05-10T00:22:50;8.15;;;3.88;;
55146;SDS011;41039;49.830;23.988;2023-05-10T00:25:15;9.50;;;3.40;;
55146;SDS011;41039;49.830;23.988;2023-05-10T00:27:41;7.22;;;3.75;;
55146;SDS011;41039;49.830;23.988;2023-05-10T00:30:06;6.78;;;3.15;;
55146;SDS011;41039;49.830;23.988;2023-05-10T00:32:32;5.88;;;3.20;;
55146;SDS011;41039;49.830;23.988;2023-05-10T00:34:57;10.30;;;3.72;;
55146;SDS011;41039;49.830;23.988;2023-05-10T00:37:22;6.63;;;3.40;;
55146;SDS011;41039;49.830;23.988;2023-05-10T00:39:48;9.68;;;3.15;;
55146;SDS011;41039;49.830;23.988;2023-05-10T00:42:13;5.90;;;2.97;;
55146;SDS011;41039;49.830;23.988;2023-05-10T00:44:38;7.05;;;3.40;;
55146;SDS011;41039;49.830;23.988;2023-05-10T00:47:03;4.93;;;2.95;;
55146;SDS011;41039;49.830;23.988;2023-05-10T00:49:28;6.03;;;3.00;;
55146;SDS011;41039;49.830;23.988;2023-05-10T00:51:54;7.93;;;3.20;;
55146;SDS011;41039;49.830;23.988;2023-05-10T00:54:19;6.93;;;3.40;;
55146;SDS011;41039;49.830;23.988;2023-05-10T00:56:45;6.28;;;3.42;;
55146;SDS011;41039;49.830;23.988;2023-05-10T00:59:14;5.78;;;3.53;;
55146;SDS011;41039;49.830;23.988;2023-05-10T01:01:39;8.52;;;4.65;;
55146;SDS011;41039;49.830;23.988;2023-05-10T01:04:05;8.23;;;3.90;;
55146;SDS011;41039;49.830;23.988;2023-05-10T01:06:30;8.02;;;3.85;;
55146;SDS011;41039;49.830;23.988;2023-05-10T01:08:56;8.85;;;4.93;;
55146;SDS011;41039;49.830;23.988;2023-05-10T01:11:21;10.57;;;5.00;;
55146;SDS011;41039;49.830;23.988;2023-05-10T01:13:47;9.57;;;5.28;;
55146;SDS011;41039;49.830;23.988;2023-05-10T01:16:15;9.15;;;4.82;;
55146;SDS011;41039;49.830;23.988;2023-05-10T01:18:41;9.75;;;4.72;;
55146;SDS011;41039;49.830;23.988;2023-05-10T01:31:34;10.65;;;5.13;;
55146;SDS011;41039;49.830;23.988;2023-05-10T01:34:07;7.55;;;4.45;;
55146;SDS011;41039;49.830;23.988;2023-05-10T01:36:48;10.23;;;5.57;;
55146;SDS011;41039;49.830;23.988;2023-05-10T01:42:10;12.15;;;5.43;;
55146;SDS011;41039;49.830;23.988;2023-05-10T01:47:41;9.02;;;4.80;;
55146;SDS011;41039;49.830;23.988;2023-05-10T01:50:06;9.00;;;4.90;;
55146;SDS011;41039;49.830;23.988;2023-05-10T01:52:33;13.23;;;5.15;;
55146;SDS011;41039;49.830;23.988;2023-05-10T01:55:11;9.45;;;4.63;;
55146;SDS011;41039;49.830;23.988;2023-05-10T01:57:39;13.52;;;6.15;;
55146;SDS011;41039;49.830;23.988;2023-05-10T02:00:05;9.38;;;5.53;;
55146;SDS011;41039;49.830;23.988;2023-05-10T02:02:33;10.95;;;5.43;;
55146;SDS011;41039;49.830;23.988;2023-05-10T02:04:59;15.43;;;7.38;;
55146;SDS011;41039;49.830;23.988;2023-05-10T02:07:24;17.60;;;8.45;;
55146;SDS011;41039;49.830;23.988;2023-05-10T02:09:51;20.08;;;8.93;;
55146;SDS011;41039;49.830;23.988;2023-05-10T02:12:17;15.05;;;8.18;;
55146;SDS011;41039;49.830;23.988;2023-05-10T02:14:43;20.27;;;9.18;;
55146;SDS011;41039;49.830;23.988;2023-05-10T02:17:09;13.20;;;7.55;;
55146;SDS011;41039;49.830;23.988;2023-05-10T02:19:36;10.65;;;6.35;;
55146;SDS011;41039;49.830;23.988;2023-05-10T02:22:01;11.65;;;6.25;;
55146;SDS011;41039;49.830;23.988;2023-05-10T02:24:27;14.60;;;7.05;;
55146;SDS011;41039;49.830;23.988;2023-05-10T02:26:53;12.48;;;6.35;;
55146;SDS011;41039;49.830;23.988;2023-05-10T02:29:20;11.93;;;6.88;;
55146;SDS011;41039;49.830;23.988;2023-05-10T02:31:48;14.10;;;6.60;;
55146;SDS011;41039;49.830;23.988;2023-05-10T02:34:15;12.52;;;7.65;;
55146;SDS011;41039;49.830;23.988;2023-05-10T02:36:41;8.77;;;5.78;;
55146;SDS011;41039;49.830;23.988;2023-05-10T02:39:06;14.77;;;6.40;;
55146;SDS011;41039;49.830;23.988;2023-05-10T02:41:34;9.93;;;5.25;;
55146;SDS011;41039;49.830;23.988;2023-05-10T02:44:01;9.35;;;5.72;;
55146;SDS011;41039;49.830;23.988;2023-05-10T02:46:27;8.75;;;4.72;;
55146;SDS011;41039;49.830;23.988;2023-05-10T02:48:53;14.68;;;6.82;;
55146;SDS011;41039;49.830;23.988;2023-05-10T02:51:18;8.75;;;5.43;;
55146;SDS011;41039;49.830;23.988;2023-05-10T02:53:44;11.05;;;6.88;;
55146;SDS011;41039;49.830;23.988;2023-05-10T02:56:15;12.02;;;6.78;;
55146;SDS011;41039;49.830;23.988;2023-05-10T02:58:40;11.95;;;6.55;;
55146;SDS011;41039;49.830;23.988;2023-05-10T03:01:05;12.00;;;7.00;;
55146;SDS011;41039;49.830;23.988;2023-05-10T03:03:32;12.32;;;6.70;;
55146;SDS011;41039;49.830;23.988;2023-05-10T03:05:57;16.77;;;7.30;;
55146;SDS011;41039;49.830;23.988;2023-05-10T03:08:23;13.05;;;6.95;;
55146;SDS011;41039;49.830;23.988;2023-05-10T03:10:58;16.90;;;7.30;;
55146;SDS011;41039;49.830;23.988;2023-05-10T03:13:32;15.52;;;6.88;;
55146;SDS011;41039;49.830;23.988;2023-05-10T03:16:08;11.98;;;6.13;;
55146;SDS011;41039;49.830;23.988;2023-05-10T03:18:44;11.63;;;5.28;;
55146;SDS011;41039;49.830;23.988;2023-05-10T03:21:12;9.70;;;5.35;;
55146;SDS011;41039;49.830;23.988;2023-05-10T03:23:43;9.00;;;5.43;;
55146;SDS011;41039;49.830;23.988;2023-05-10T03:26:09;11.68;;;5.55;;
55146;SDS011;41039;49.830;23.988;2023-05-10T03:28:35;11.52;;;5.75;;
55146;SDS011;41039;49.830;23.988;2023-05-10T03:31:00;14.93;;;6.68;;
55146;SDS011;41039;49.830;23.988;2023-05-10T03:33:26;11.55;;;6.22;;
55146;SDS011;41039;49.830;23.988;2023-05-10T03:35:51;14.82;;;6.63;;
55146;SDS011;41039;49.830;23.988;2023-05-10T03:38:16;11.63;;;5.03;;
55146;SDS011;41039;49.830;23.988;2023-05-10T03:40:41;12.65;;;7.18;;
55146;SDS011;41039;49.830;23.988;2023-05-10T03:43:07;11.38;;;5.47;;
55146;SDS011;41039;49.830;23.988;2023-05-10T03:45:32;11.63;;;5.30;;
55146;SDS011;41039;49.830;23.988;2023-05-10T03:47:58;7.95;;;5.32;;
55146;SDS011;41039;49.830;23.988;2023-05-10T03:50:23;13.27;;;5.60;;
55146;SDS011;41039;49.830;23.988;2023-05-10T03:52:48;11.25;;;6.35;;
55146;SDS011;41039;49.830;23.988;2023-05-10T03:55:14;11.13;;;5.63;;
55146;SDS011;41039;49.830;23.988;2023-05-10T03:57:39;15.02;;;6.57;;
55146;SDS011;41039;49.830;23.988;2023-05-10T04:00:04;11.75;;;5.63;;
55146;SDS011;41039;49.830;23.988;2023-05-10T04:02:30;11.50;;;6.07;;
55146;SDS011;41039;49.830;23.988;2023-05-10T04:04:55;11.63;;;5.60;;
55146;SDS011;41039;49.830;23.988;2023-05-10T04:07:21;13.13;;;5.75;;
55146;SDS011;41039;49.830;23.988;2023-05-10T04:09:46;12.23;;;6.30;;
55146;SDS011;41039;49.830;23.988;2023-05-10T04:12:11;15.73;;;6.18;;
55146;SDS011;41039;49.830;23.988;2023-05-10T04:14:37;19.73;;;6.20;;
55146;SDS011;41039;49.830;23.988;2023-05-10T04:17:02;11.85;;;5.63;;
55146;SDS011;41039;49.830;23.988;2023-05-10T04:19:30;15.23;;;6.82;;
55146;SDS011;41039;49.830;23.988;2023-05-10T04:21:56;12.15;;;6.68;;
55146;SDS011;41039;49.830;23.988;2023-05-10T04:24:22;11.43;;;6.25;;
55146;SDS011;41039;49.830;23.988;2023-05-10T04:26:47;13.13;;;6.40;;
55146;SDS011;41039;49.830;23.988;2023-05-10T04:29:12;15.40;;;6.53;;
55146;SDS011;41039;49.830;23.988;2023-05-10T04:31:38;18.90;;;6.53;;
55146;SDS011;41039;49.830;23.988;2023-05-10T04:34:03;21.88;;;7.65;;
55146;SDS011;41039;49.830;23.988;2023-05-10T04:36:28;11.48;;;6.53;;
55146;SDS011;41039;49.830;23.988;2023-05-10T04:38:53;17.52;;;7.13;;
55146;SDS011;41039;49.830;23.988;2023-05-10T04:41:19;23.42;;;7.82;;
55146;SDS011;41039;49.830;23.988;2023-05-10T04:43:45;22.02;;;7.63;;
55146;SDS011;41039;49.830;23.988;2023-05-10T04:46:11;65.78;;;13.18;;
55146;SDS011;41039;49.830;23.988;2023-05-10T04:48:36;32.47;;;7.57;;
55146;SDS011;41039;49.830;23.988;2023-05-10T04:51:01;25.47;;;8.00;;
55146;SDS011;41039;49.830;23.988;2023-05-10T04:53:28;34.50;;;8.75;;
55146;SDS011;41039;49.830;23.988;2023-05-10T04:55:53;43.97;;;9.13;;
55146;SDS011;41039;49.830;23.988;2023-05-10T04:58:18;16.17;;;6.30;;
55146;SDS011;41039;49.830;23.988;2023-05-10T05:00:44;12.45;;;6.50;;
55146;SDS011;41039;49.830;23.988;2023-05-10T05:03:09;13.10;;;6.90;;
55146;SDS011;41039;49.830;23.988;2023-05-10T05:05:34;9.73;;;5.63;;
55146;SDS011;41039;49.830;23.988;2023-05-10T05:07:59;12.88;;;5.35;;
55146;SDS011;41039;49.830;23.988;2023-05-10T05:10:25;13.75;;;5.88;;
55146;SDS011;41039;49.830;23.988;2023-05-10T05:12:50;12.68;;;5.80;;
55146;SDS011;41039;49.830;23.988;2023-05-10T05:15:15;15.52;;;7.00;;
55146;SDS011;41039;49.830;23.988;2023-05-10T05:17:41;14.77;;;6.75;;
55146;SDS011;41039;49.830;23.988;2023-05-10T05:20:07;11.07;;;5.75;;
55146;SDS011;41039;49.830;23.988;2023-05-10T05:22:32;10.95;;;5.47;;
55146;SDS011;41039;49.830;23.988;2023-05-10T05:24:58;15.27;;;6.00;;
55146;SDS011;41039;49.830;23.988;2023-05-10T05:27:23;11.02;;;5.72;;
55146;SDS011;41039;49.830;23.988;2023-05-10T05:29:52;9.40;;;5.00;;
55146;SDS011;41039;49.830;23.988;2023-05-10T05:32:17;6.32;;;3.70;;
55146;SDS011;41039;49.830;23.988;2023-05-10T05:34:44;13.45;;;3.30;;
55146;SDS011;41039;49.830;23.988;2023-05-10T05:37:12;6.90;;;3.15;;
55146;SDS011;41039;49.830;23.988;2023-05-10T05:39:37;9.52;;;3.55;;
55146;SDS011;41039;49.830;23.988;2023-05-10T05:42:02;8.10;;;2.63;;
55146;SDS011;41039;49.830;23.988;2023-05-10T05:44:28;8.85;;;3.88;;
55146;SDS011;41039;49.830;23.988;2023-05-10T05:46:53;8.43;;;3.10;;
55146;SDS011;41039;49.830;23.988;2023-05-10T05:49:18;9.43;;;2.97;;
55146;SDS011;41039;49.830;23.988;2023-05-10T05:51:44;5.13;;;2.53;;
55146;SDS011;41039;49.830;23.988;2023-05-10T05:54:09;6.88;;;3.00;;
55146;SDS011;41039;49.830;23.988;2023-05-10T05:56:35;5.00;;;2.58;;
55146;SDS011;41039;49.830;23.988;2023-05-10T05:59:00;7.07;;;2.63;;
55146;SDS011;41039;49.830;23.988;2023-05-10T06:01:25;14.90;;;3.95;;
55146;SDS011;41039;49.830;23.988;2023-05-10T06:03:50;7.30;;;3.08;;
55146;SDS011;41039;49.830;23.988;2023-05-10T06:06:16;8.77;;;2.95;;
55146;SDS011;41039;49.830;23.988;2023-05-10T06:08:41;5.07;;;2.75;;
55146;SDS011;41039;49.830;23.988;2023-05-10T06:11:06;5.60;;;2.77;;
55146;SDS011;41039;49.830;23.988;2023-05-10T06:13:31;7.80;;;3.42;;
55146;SDS011;41039;49.830;23.988;2023-05-10T06:15:58;8.35;;;3.00;;
55146;SDS011;41039;49.830;23.988;2023-05-10T06:18:23;6.95;;;3.22;;
55146;SDS011;41039;49.830;23.988;2023-05-10T06:20:49;10.48;;;4.47;;
55146;SDS011;41039;49.830;23.988;2023-05-10T06:23:14;6.95;;;2.88;;
55146;SDS011;41039;49.830;23.988;2023-05-10T06:25:39;12.10;;;3.10;;
55146;SDS011;41039;49.830;23.988;2023-05-10T06:28:05;13.32;;;2.92;;
55146;SDS011;41039;49.830;23.988;2023-05-10T06:30:30;8.70;;;2.60;;
55146;SDS011;41039;49.830;23.988;2023-05-10T06:32:56;8.77;;;3.30;;
55146;SDS011;41039;49.830;23.988;2023-05-10T06:35:21;5.47;;;2.35;;
55146;SDS011;41039;49.830;23.988;2023-05-10T06:37:46;11.57;;;3.60;;
55146;SDS011;41039;49.830;23.988;2023-05-10T06:40:11;6.00;;;2.90;;
55146;SDS011;41039;49.830;23.988;2023-05-10T06:42:37;7.78;;;3.42;;
55146;SDS011;41039;49.830;23.988;2023-05-10T06:45:03;6.78;;;2.60;;
55146;SDS011;41039;49.830;23.988;2023-05-10T06:47:28;4.22;;;2.28;;
55146;SDS011;41039;49.830;23.988;2023-05-10T06:49:53;7.63;;;2.60;;
55146;SDS011;41039;49.830;23.988;2023-05-10T06:52:18;10.73;;;3.70;;
55146;SDS011;41039;49.830;23.988;2023-05-10T06:54:43;5.47;;;2.55;;
55146;SDS011;41039;49.830;23.988;2023-05-10T06:57:09;9.80;;;4.28;;
55146;SDS011;41039;49.830;23.988;2023-05-10T06:59:34;7.35;;;2.67;;
55146;SDS011;41039;49.830;23.988;2023-05-10T07:02:01;8.77;;;3.38;;
55146;SDS011;41039;49.830;23.988;2023-05-10T07:04:26;8.43;;;3.22;;
55146;SDS011;41039;49.830;23.988;2023-05-10T07:06:51;3.83;;;2.13;;
55146;SDS011;41039;49.830;23.988;2023-05-10T07:09:16;5.37;;;3.00;;
55146;SDS011;41039;49.830;23.988;2023-05-10T07:11:42;5.50;;;2.22;;
55146;SDS011;41039;49.830;23.988;2023-05-10T07:14:07;9.27;;;2.20;;
55146;SDS011;41039;49.830;23.988;2023-05-10T07:16:32;3.20;;;1.90;;
55146;SDS011;41039;49.830;23.988;2023-05-10T07:18:57;8.30;;;2.30;;
55146;SDS011;41039;49.830;23.988;2023-05-10T07:21:23;10.10;;;1.98;;
55146;SDS011;41039;49.830;23.988;2023-05-10T07:23:49;7.45;;;2.28;;
55146;SDS011;41039;49.830;23.988;2023-05-10T07:26:14;12.88;;;2.25;;
55146;SDS011;41039;49.830;23.988;2023-05-10T07:28:40;3.90;;;1.85;;
55146;SDS011;41039;49.830;23.988;2023-05-10T07:31:05;3.03;;;1.50;;
55146;SDS011;41039;49.830;23.988;2023-05-10T07:33:30;6.68;;;2.85;;
55146;SDS011;41039;49.830;23.988;2023-05-10T07:35:56;6.03;;;3.20;;
55146;SDS011;41039;49.830;23.988;2023-05-10T07:38:21;7.37;;;2.17;;
55146;SDS011;41039;49.830;23.988;2023-05-10T07:40:46;8.32;;;2.75;;
55146;SDS011;41039;49.830;23.988;2023-05-10T07:43:11;6.03;;;2.05;;
55146;SDS011;41039;49.830;23.988;2023-05-10T07:45:37;24.03;;;2.60;;
55146;SDS011;41039;49.830;23.988;2023-05-10T07:48:02;10.53;;;3.50;;
55146;SDS011;41039;49.830;23.988;2023-05-10T07:50:27;4.43;;;1.95;;
55146;SDS011;41039;49.830;23.988;2023-05-10T07:52:52;9.80;;;1.85;;
55146;SDS011;41039;49.830;23.988;2023-05-10T07:55:18;5.10;;;1.85;;
55146;SDS011;41039;49.830;23.988;2023-05-10T07:57:43;4.07;;;1.90;;
55146;SDS011;41039;49.830;23.988;2023-05-10T08:00:09;6.90;;;2.00;;
55146;SDS011;41039;49.830;23.988;2023-05-10T08:02:37;5.50;;;1.90;;
55146;SDS011;41039;49.830;23.988;2023-05-10T08:05:02;7.28;;;1.95;;
55146;SDS011;41039;49.830;23.988;2023-05-10T08:07:27;5.10;;;1.65;;
55146;SDS011;41039;49.830;23.988;2023-05-10T08:09:53;3.65;;;1.70;;
55146;SDS011;41039;49.830;23.988;2023-05-10T08:12:18;4.97;;;1.77;;
55146;SDS011;41039;49.830;23.988;2023-05-10T08:14:43;6.43;;;1.80;;
55146;SDS011;41039;49.830;23.988;2023-05-10T08:17:08;10.52;;;2.00;;
55146;SDS011;41039;49.830;23.988;2023-05-10T08:19:33;6.60;;;2.10;;
55146;SDS011;41039;49.830;23.988;2023-05-10T08:21:59;8.45;;;2.10;;
55146;SDS011;41039;49.830;23.988;2023-05-10T08:24:24;3.83;;;2.25;;
55146;SDS011;41039;49.830;23.988;2023-05-10T08:26:49;5.90;;;2.63;;
55146;SDS011;41039;49.830;23.988;2023-05-10T08:29:14;7.63;;;1.90;;
55146;SDS011;41039;49.830;23.988;2023-05-10T08:31:40;7.55;;;1.98;;
55146;SDS011;41039;49.830;23.988;2023-05-10T08:34:05;4.80;;;2.00;;
55146;SDS011;41039;49.830;23.988;2023-05-10T08:36:30;8.43;;;2.13;;
55146;SDS011;41039;49.830;23.988;2023-05-10T08:38:57;8.85;;;2.40;;
55146;SDS011;41039;49.830;23.988;2023-05-10T08:41:23;7.38;;;2.13;;
55146;SDS011;41039;49.830;23.988;2023-05-10T08:43:51;4.35;;;2.00;;
55146;SDS011;41039;49.830;23.988;2023-05-10T08:46:18;3.35;;;1.70;;
55146;SDS011;41039;49.830;23.988;2023-05-10T08:48:44;7.32;;;1.77;;
55146;SDS011;41039;49.830;23.988;2023-05-10T08:51:09;4.63;;;1.80;;
55146;SDS011;41039;49.830;23.988;2023-05-10T08:53:37;4.25;;;1.55;;
55146;SDS011;41039;49.830;23.988;2023-05-10T08:56:03;3.80;;;1.73;;
55146;SDS011;41039;49.830;23.988;2023-05-10T08:58:29;6.85;;;1.77;;
55146;SDS011;41039;49.830;23.988;2023-05-10T09:00:54;5.88;;;2.00;;
55146;SDS011;41039;49.830;23.988;2023-05-10T09:03:20;5.65;;;2.10;;
55146;SDS011;41039;49.830;23.988;2023-05-10T09:05:45;6.15;;;2.17;;
55146;SDS011;41039;49.830;23.988;2023-05-10T09:08:11;3.00;;;1.60;;
55146;SDS011;41039;49.830;23.988;2023-05-10T09:10:37;4.57;;;1.92;;
55146;SDS011;41039;49.830;23.988;2023-05-10T09:13:03;4.30;;;1.58;;
55146;SDS011;41039;49.830;23.988;2023-05-10T09:15:28;6.95;;;2.40;;
55146;SDS011;41039;49.830;23.988;2023-05-10T09:17:54;4.07;;;1.73;;
55146;SDS011;41039;49.830;23.988;2023-05-10T09:20:19;3.47;;;1.75;;
55146;SDS011;41039;49.830;23.988;2023-05-10T09:22:45;3.78;;;1.83;;
55146;SDS011;41039;49.830;23.988;2023-05-10T09:25:12;5.40;;;2.45;;
55146;SDS011;41039;49.830;23.988;2023-05-10T09:27:41;3.67;;;2.05;;
55146;SDS011;41039;49.830;23.988;2023-05-10T09:30:06;4.05;;;1.75;;
55146;SDS011;41039;49.830;23.988;2023-05-10T09:32:36;7.00;;;1.98;;
55146;SDS011;41039;49.830;23.988;2023-05-10T09:37:33;3.20;;;1.70;;
55146;SDS011;41039;49.830;23.988;2023-05-10T09:39:58;6.45;;;2.25;;
55146;SDS011;41039;49.830;23.988;2023-05-10T09:42:23;7.80;;;2.37;;
55146;SDS011;41039;49.830;23.988;2023-05-10T09:44:49;8.85;;;2.83;;
55146;SDS011;41039;49.830;23.988;2023-05-10T09:47:17;7.23;;;2.27;;
55146;SDS011;41039;49.830;23.988;2023-05-10T09:49:44;3.80;;;1.55;;
55146;SDS011;41039;49.830;23.988;2023-05-10T09:52:09;3.70;;;1.95;;
55146;SDS011;41039;49.830;23.988;2023-05-10T09:54:34;9.23;;;2.78;;
55146;SDS011;41039;49.830;23.988;2023-05-10T09:57:00;6.50;;;2.03;;
55146;SDS011;41039;49.830;23.988;2023-05-10T09:59:26;4.68;;;1.90;;
55146;SDS011;41039;49.830;23.988;2023-05-10T10:01:56;3.83;;;2.10;;
55146;SDS011;41039;49.830;23.988;2023-05-10T10:04:21;4.70;;;1.45;;
55146;SDS011;41039;49.830;23.988;2023-05-10T10:06:46;4.40;;;1.60;;
55146;SDS011;41039;49.830;23.988;2023-05-10T10:09:12;4.75;;;1.75;;
55146;SDS011;41039;49.830;23.988;2023-05-10T10:11:38;5.93;;;1.88;;
55146;SDS011;41039;49.830;23.988;2023-05-10T10:14:04;3.28;;;1.35;;
55146;SDS011;41039;49.830;23.988;2023-05-10T10:16:30;2.20;;;1.20;;
55146;SDS011;41039;49.830;23.988;2023-05-10T10:18:55;3.88;;;1.52;;
55146;SDS011;41039;49.830;23.988;2023-05-10T10:21:21;4.72;;;1.70;;
55146;SDS011;41039;49.830;23.988;2023-05-10T10:23:46;4.78;;;1.65;;
55146;SDS011;41039;49.830;23.988;2023-05-10T10:26:11;4.80;;;1.50;;
55146;SDS011;41039;49.830;23.988;2023-05-10T10:31:26;4.65;;;1.85;;
55146;SDS011;41039;49.830;23.988;2023-05-10T10:33:59;5.80;;;2.05;;
55146;SDS011;41039;49.830;23.988;2023-05-10T10:36:25;5.78;;;1.98;;
55146;SDS011;41039;49.830;23.988;2023-05-10T10:38:55;3.47;;;1.67;;
55146;SDS011;41039;49.830;23.988;2023-05-10T10:41:34;3.05;;;1.58;;
55146;SDS011;41039;49.830;23.988;2023-05-10T10:49:27;5.30;;;1.38;;
55146;SDS011;41039;49.830;23.988;2023-05-10T10:54:37;3.20;;;1.50;;
55146;SDS011;41039;49.830;23.988;2023-05-10T10:57:12;4.05;;;1.88;;
55146;SDS011;41039;49.830;23.988;2023-05-10T10:59:44;6.75;;;1.83;;
55146;SDS011;41039;49.830;23.988;2023-05-10T11:02:10;5.15;;;2.20;;
55146;SDS011;41039;49.830;23.988;2023-05-10T11:04:55;8.35;;;1.88;;
55146;SDS011;41039;49.830;23.988;2023-05-10T11:07:20;7.07;;;1.60;;
55146;SDS011;41039;49.830;23.988;2023-05-10T11:09:46;4.70;;;1.67;;
55146;SDS011;41039;49.830;23.988;2023-05-10T11:12:12;5.82;;;2.00;;
55146;SDS011;41039;49.830;23.988;2023-05-10T11:14:37;3.53;;;1.70;;
55146;SDS011;41039;49.830;23.988;2023-05-10T11:17:02;4.53;;;1.90;;
55146;SDS011;41039;49.830;23.988;2023-05-10T11:20:02;4.70;;;1.77;;
55146;SDS011;41039;49.830;23.988;2023-05-10T11:22:27;4.25;;;1.38;;
55146;SDS011;41039;49.830;23.988;2023-05-10T11:24:56;5.30;;;1.33;;
55146;SDS011;41039;49.830;23.988;2023-05-10T11:27:23;6.50;;;2.17;;
55146;SDS011;41039;49.830;23.988;2023-05-10T11:29:52;5.35;;;2.25;;
55146;SDS011;41039;49.830;23.988;2023-05-10T11:32:17;5.60;;;1.55;;
55146;SDS011;41039;49.830;23.988;2023-05-10T11:34:46;8.20;;;5.95;;
55146;SDS011;41039;49.830;23.988;2023-05-10T11:37:12;8.73;;;4.20;;
55146;SDS011;41039;49.830;23.988;2023-05-10T11:39:37;6.20;;;1.90;;
55146;SDS011;41039;49.830;23.988;2023-05-10T11:42:02;4.70;;;2.50;;
55146;SDS011;41039;49.830;23.988;2023-05-10T11:44:31;5.25;;;1.30;;
55146;SDS011;41039;49.830;23.988;2023-05-10T11:47:00;3.03;;;1.90;;
55146;SDS011;41039;49.830;23.988;2023-05-10T11:49:25;3.90;;;1.52;;
55146;SDS011;41039;49.830;23.988;2023-05-10T11:51:50;5.55;;;1.60;;
55146;SDS011;41039;49.830;23.988;2023-05-10T11:54:16;4.18;;;1.73;;
55146;SDS011;41039;49.830;23.988;2023-05-10T11:56:41;7.30;;;2.27;;
55146;SDS011;41039;49.830;23.988;2023-05-10T11:59:06;8.30;;;2.05;;
55146;SDS011;41039;49.830;23.988;2023-05-10T12:01:32;3.00;;;1.80;;
55146;SDS011;41039;49.830;23.988;2023-05-10T12:03:58;6.28;;;1.65;;
55146;SDS011;41039;49.830;23.988;2023-05-10T12:06:28;4.60;;;2.22;;
55146;SDS011;41039;49.830;23.988;2023-05-10T12:08:54;5.13;;;1.55;;
55146;SDS011;41039;49.830;23.988;2023-05-10T12:11:19;3.97;;;1.63;;
55146;SDS011;41039;49.830;23.988;2023-05-10T12:13:46;4.15;;;1.58;;
55146;SDS011;41039;49.830;23.988;2023-05-10T12:16:12;4.90;;;1.77;;
55146;SDS011;41039;49.830;23.988;2023-05-10T12:18:38;6.63;;;2.20;;
55146;SDS011;41039;49.830;23.988;2023-05-10T12:21:04;2.70;;;1.50;;
55146;SDS011;41039;49.830;23.988;2023-05-10T12:23:30;5.72;;;2.08;;
55146;SDS011;41039;49.830;23.988;2023-05-10T12:26:01;8.27;;;2.00;;
55146;SDS011;41039;49.830;23.988;2023-05-10T12:28:29;6.20;;;1.75;;
55146;SDS011;41039;49.830;23.988;2023-05-10T12:30:54;3.75;;;1.58;;
55146;SDS011;41039;49.830;23.988;2023-05-10T12:33:20;5.70;;;2.53;;
55146;SDS011;41039;49.830;23.988;2023-05-10T12:35:49;6.83;;;2.10;;
55146;SDS011;41039;49.830;23.988;2023-05-10T12:38:24;6.88;;;2.35;;
55146;SDS011;41039;49.830;23.988;2023-05-10T12:40:50;5.50;;;1.75;;
55146;SDS011;41039;49.830;23.988;2023-05-10T12:43:15;4.85;;;1.40;;
55146;SDS011;41039;49.830;23.988;2023-05-10T12:45:40;3.37;;;1.80;;
55146;SDS011;41039;49.830;23.988;2023-05-10T12:48:06;6.03;;;1.55;;
55146;SDS011;41039;49.830;23.988;2023-05-10T12:50:31;5.80;;;2.97;;
55146;SDS011;41039;49.830;23.988;2023-05-10T12:52:56;5.80;;;2.57;;
55146;SDS011;41039;49.830;23.988;2023-05-10T12:55:21;3.63;;;1.93;;
55146;SDS011;41039;49.830;23.988;2023-05-10T12:57:46;4.28;;;1.92;;
55146;SDS011;41039;49.830;23.988;2023-05-10T13:00:12;4.87;;;2.53;;
55146;SDS011;41039;49.830;23.988;2023-05-10T13:02:37;4.93;;;1.85;;
55146;SDS011;41039;49.830;23.988;2023-05-10T13:05:02;5.28;;;1.95;;
55146;SDS011;41039;49.830;23.988;2023-05-10T13:07:28;2.85;;;1.83;;
55146;SDS011;41039;49.830;23.988;2023-05-10T13:09:53;4.65;;;1.65;;
55146;SDS011;41039;49.830;23.988;2023-05-10T13:12:18;4.65;;;1.77;;
55146;SDS011;41039;49.830;23.988;2023-05-10T13:14:44;5.38;;;1.48;;
55146;SDS011;41039;49.830;23.988;2023-05-10T13:17:09;4.97;;;1.40;;
55146;SDS011;41039;49.830;23.988;2023-05-10T13:19:34;3.35;;;1.42;;
55146;SDS011;41039;49.830;23.988;2023-05-10T13:22:00;3.17;;;1.50;;
55146;SDS011;41039;49.830;23.988;2023-05-10T13:24:25;6.40;;;1.90;;
55146;SDS011;41039;49.830;23.988;2023-05-10T13:26:50;4.25;;;1.77;;
55146;SDS011;41039;49.830;23.988;2023-05-10T13:29:16;6.95;;;1.80;;
55146;SDS011;41039;49.830;23.988;2023-05-10T13:31:43;4.38;;;1.77;;
55146;SDS011;41039;49.830;23.988;2023-05-10T13:34:08;5.55;;;2.38;;
55146;SDS011;41039;49.830;23.988;2023-05-10T13:36:33;5.05;;;1.75;;
55146;SDS011;41039;49.830;23.988;2023-05-10T13:38:58;5.53;;;1.50;;
55146;SDS011;41039;49.830;23.988;2023-05-10T13:41:26;5.05;;;2.08;;
55146;SDS011;41039;49.830;23.988;2023-05-10T13:43:51;4.55;;;1.77;;
55146;SDS011;41039;49.830;23.988;2023-05-10T13:46:17;2.75;;;1.50;;
55146;SDS011;41039;49.830;23.988;2023-05-10T13:48:42;7.15;;;2.10;;
55146;SDS011;41039;49.830;23.988;2023-05-10T13:51:07;21.13;;;4.50;;
55146;SDS011;41039;49.830;23.988;2023-05-10T13:53:32;5.55;;;4.45;;
55146;SDS011;41039;49.830;23.988;2023-05-10T13:55:58;3.85;;;1.83;;
55146;SDS011;41039;49.830;23.988;2023-05-10T13:58:23;5.10;;;2.17;;
55146;SDS011;41039;49.830;23.988;2023-05-10T14:00:48;4.60;;;1.77;;
55146;SDS011;41039;49.830;23.988;2023-05-10T14:16:16;6.47;;;1.63;;
55146;SDS011;41039;49.830;23.988;2023-05-10T14:18:41;4.05;;;1.60;;
55146;SDS011;41039;49.830;23.988;2023-05-10T14:21:06;5.68;;;1.75;;
55146;SDS011;41039;49.830;23.988;2023-05-10T14:23:32;5.90;;;1.95;;
55146;SDS011;41039;49.830;23.988;2023-05-10T14:25:57;3.67;;;1.80;;
55146;SDS011;41039;49.830;23.988;2023-05-10T14:28:22;10.90;;;2.03;;
55146;SDS011;41039;49.830;23.988;2023-05-10T14:30:48;9.30;;;1.73;;
55146;SDS011;41039;49.830;23.988;2023-05-10T14:33:13;4.68;;;2.20;;
55146;SDS011;41039;49.830;23.988;2023-05-10T14:35:39;5.32;;;1.98;;
55146;SDS011;41039;49.830;23.988;2023-05-10T14:38:04;4.05;;;1.70;;
55146;SDS011;41039;49.830;23.988;2023-05-10T14:40:30;4.38;;;1.90;;
55146;SDS011;41039;49.830;23.988;2023-05-10T14:42:55;4.38;;;1.70;;
55146;SDS011;41039;49.830;23.988;2023-05-10T14:45:21;4.35;;;2.00;;
55146;SDS011;41039;49.830;23.988;2023-05-10T14:47:47;5.32;;;1.60;;
55146;SDS011;41039;49.830;23.988;2023-05-10T14:50:12;3.30;;;1.40;;
55146;SDS011;41039;49.830;23.988;2023-05-10T14:52:38;5.57;;;1.90;;
55146;SDS011;41039;49.830;23.988;2023-05-10T14:55:03;4.75;;;1.55;;
55146;SDS011;41039;49.830;23.988;2023-05-10T14:57:28;5.40;;;2.10;;
55146;SDS011;41039;49.830;23.988;2023-05-10T14:59:55;6.25;;;2.28;;
55146;SDS011;41039;49.830;23.988;2023-05-10T15:02:20;3.22;;;1.63;;
55146;SDS011;41039;49.830;23.988;2023-05-10T15:04:46;9.98;;;2.53;;
55146;SDS011;41039;49.830;23.988;2023-05-10T15:07:11;5.25;;;2.63;;